Time;durP1;ratioP1;P1;durP2;ratioP2;P2;SDS_P1;SDS_P2;PMS_P1;PMS_P2;Temp;Humidity;BMP_temperature;BMP_pressure;BME280_temperature;BME280_humidity;BME280_pressure;Samples;Min_cycle;Max_cycle;Signal;HPM_P1;HPM_P2
2022/05/05 00:01:35;;;;;;;11.30;10.27;;;;;;;28.73;72.37;100691.59;5038267;28;65532;-33
2022/05/05 00:04:06;;;;;;;15.60;9.90;;;;;;;28.77;72.54;100685.75;5019978;28;69477;-33
2022/05/05 00:06:37;;;;;;;13.48;11.77;;;;;;;28.84;71.90;100687.41;5022491;28;67067;-33
2022/05/05 00:09:08;;;;;;;10.88;10.05;;;;;;;28.87;71.62;100689.69;5021612;28;69310;-35
2022/05/05 00:14:33;;;;;;;10.80;9.80;;;;;;;28.95;71.82;100699.44;5020062;28;70131;-33
2022/05/05 00:17:06;;;;;;;10.50;9.68;;;;;;;28.97;72.66;100702.75;5008958;28;64377;-37
2022/05/05 00:19:38;;;;;;;10.40;9.70;;;;;;;28.62;73.12;100650.94;5034330;28;69009;-36
2022/05/05 00:22:10;;;;;;;17.65;10.15;;;;;;;29.06;72.98;100711.47;5030090;28;66112;-36
2022/05/05 00:24:40;;;;;;;12.70;11.90;;;;;;;29.00;73.50;100713.13;5035380;28;69169;-35
2022/05/05 00:27:11;;;;;;;16.33;14.73;;;;;;;28.99;73.67;100710.66;5035853;28;66171;-36
2022/05/05 00:29:41;;;;;;;15.25;13.77;;;;;;;28.76;73.64;100706.53;5035484;28;69270;-33
2022/05/05 00:32:11;;;;;;;13.30;12.10;;;;;;;29.04;73.59;100737.88;5034851;28;66068;-34
2022/05/05 00:34:42;;;;;;;14.45;12.07;;;;;;;29.09;71.77;100738.09;5029368;28;69958;-36
2022/05/05 00:37:12;;;;;;;10.93;10.13;;;;;;;28.82;71.92;100684.09;5039342;28;66441;-35
2022/05/05 00:39:42;;;;;;;9.57;8.70;;;;;;;29.14;70.96;100724.75;5037478;28;69684;-34
2022/05/05 00:42:14;;;;;;;8.68;8.18;;;;;;;29.31;70.33;100741.31;5040751;28;66143;-35
2022/05/05 00:44:45;;;;;;;8.32;7.82;;;;;;;29.33;70.04;100745.47;5038966;28;70087;-36
2022/05/05 00:47:16;;;;;;;8.35;7.60;;;;;;;29.40;69.71;100740.88;5039942;28;66381;-35
2022/05/05 00:49:49;;;;;;;8.02;7.53;;;;;;;29.42;70.30;100747.94;5040566;28;70044;-34
2022/05/05 00:52:20;;;;;;;7.40;7.00;;;;;;;29.46;69.68;100744.59;5039451;28;66074;-35
2022/05/05 00:54:50;;;;;;;7.82;7.32;;;;;;;29.51;69.46;100741.25;5040523;28;69670;-35
2022/05/05 00:57:20;;;;;;;8.13;7.63;;;;;;;29.56;68.81;100749.53;5040378;28;65929;-35
2022/05/05 00:59:52;;;;;;;7.60;7.18;;;;;;;29.60;68.78;100742.66;5039405;28;70391;-35
2022/05/05 01:02:24;;;;;;;7.68;7.18;;;;;;;29.59;68.96;100743.72;5039936;28;65921;-35
2022/05/05 01:04:56;;;;;;;7.30;6.90;;;;;;;29.49;68.68;100716.31;5037159;28;70435;-36
2022/05/05 01:07:27;;;;;;;8.05;7.43;;;;;;;29.60;68.67;100737.25;5038279;28;65908;-36
2022/05/05 01:09:59;;;;;;;7.50;7.10;;;;;;;29.50;68.29;100710.69;5040858;28;70163;-35
2022/05/05 01:12:31;;;;;;;8.15;7.05;;;;;;;29.69;68.14;100744.09;5042763;28;66243;-36
2022/05/05 01:15:02;;;;;;;7.63;7.13;;;;;;;29.72;67.77;100740.97;5046119;28;69980;-35
2022/05/05 01:17:32;;;;;;;7.97;7.22;;;;;;;29.74;67.97;100736.19;5046632;28;65509;-36
2022/05/05 01:20:14;;;;;;;7.05;6.65;;;;;;;29.75;67.65;100732.41;5045889;28;70281;-35
2022/05/05 01:22:46;;;;;;;7.00;6.60;;;;;;;29.77;67.73;100735.75;5046402;28;65582;-36
2022/05/05 01:28:13;;;;;;;7.05;6.63;;;;;;;29.84;67.50;100751.94;5046209;28;66397;-35
2022/05/05 01:30:45;;;;;;;7.00;6.70;;;;;;;29.46;67.18;100687.84;5045522;28;70137;-36
2022/05/05 01:33:18;;;;;;;7.57;7.18;;;;;;;29.39;66.96;100668.97;5060113;28;65742;-36
2022/05/05 01:35:51;;;;;;;7.25;6.80;;;;;;;29.82;66.89;100737.81;5044390;28;69464;-35
2022/05/05 01:38:24;;;;;;;7.10;6.70;;;;;;;29.62;66.66;100705.44;5045890;28;65531;-35
2022/05/05 01:40:54;;;;;;;7.72;7.18;;;;;;;29.95;66.14;100755.81;5045560;28;70517;-34
2022/05/05 01:43:25;;;;;;;8.00;7.43;;;;;;;29.97;66.45;100762.66;5046528;28;66339;-35
2022/05/05 01:45:55;;;;;;;7.57;7.18;;;;;;;29.95;65.98;100761.22;5045053;28;70048;-35
2022/05/05 01:48:26;;;;;;;7.28;6.88;;;;;;;30.00;66.23;100772.22;5046422;28;66563;-35
2022/05/05 01:50:57;;;;;;;7.18;6.68;;;;;;;30.01;65.59;100768.50;5046792;28;69956;-35
2022/05/05 01:53:27;;;;;;;7.13;6.68;;;;;;;30.03;65.70;100771.78;5045855;28;66340;-36
2022/05/05 01:55:58;;;;;;;7.82;7.40;;;;;;;30.04;65.60;100759.94;5046203;28;70015;-35
2022/05/05 01:58:28;;;;;;;6.72;6.32;;;;;;;29.97;65.38;100745.63;5046489;28;66302;-35
2022/05/05 02:00:58;;;;;;;7.25;6.78;;;;;;;30.03;65.58;100750.16;5043449;28;70242;-35
2022/05/05 02:03:29;;;;;;;7.47;7.10;;;;;;;30.10;64.69;100760.94;5045693;28;66653;-35
2022/05/05 02:06:00;;;;;;;10.40;7.05;;;;;;;30.14;65.10;100767.56;5026626;28;69199;-35
2022/05/05 02:08:30;;;;;;;7.13;6.72;;;;;;;30.11;64.74;100755.31;5025028;28;66326;-35
2022/05/05 02:11:03;;;;;;;8.38;7.88;;;;;;;30.19;64.71;100759.63;5027553;28;43349;-35
2022/05/05 02:13:33;;;;;;;8.10;7.45;;;;;;;30.20;64.20;100767.53;5026516;28;65533;-35
2022/05/05 02:16:04;;;;;;;7.35;6.95;;;;;;;30.23;64.73;100772.53;5025255;28;69471;-36
2022/05/05 02:18:35;;;;;;;7.57;7.10;;;;;;;30.02;64.39;100732.28;5024227;28;66038;-35
2022/05/05 02:21:05;;;;;;;8.25;7.55;;;;;;;30.23;64.48;100767.13;5026293;28;70250;-37
2022/05/05 02:23:37;;;;;;;7.13;6.83;;;;;;;30.28;64.40;100775.44;5024012;28;64989;-35
2022/05/05 02:26:07;;;;;;;7.65;7.20;;;;;;;30.31;64.35;100765.19;5026188;28;69967;-35
2022/05/05 02:28:37;;;;;;;7.82;7.43;;;;;;;30.34;64.35;100767.47;5042259;28;66504;-35
2022/05/05 02:31:08;;;;;;;7.97;7.32;;;;;;;30.34;63.74;100762.03;5042228;28;70491;-36
2022/05/05 02:33:38;;;;;;;8.82;7.97;;;;;;;30.35;64.16;100758.31;5041667;28;66151;-35
2022/05/05 02:38:57;;;;;;;9.02;8.52;;;;;;;30.41;63.85;100749.31;5038253;28;66270;-35
2022/05/05 02:41:27;;;;;;;8.18;7.78;;;;;;;30.42;63.79;100748.25;5035212;28;70015;-35
2022/05/05 02:43:58;;;;;;;8.23;7.82;;;;;;;30.44;63.90;100743.44;5036510;28;66589;-34
2022/05/05 02:46:28;;;;;;;7.65;7.25;;;;;;;30.43;63.82;100744.50;5036070;28;70216;-36
2022/05/05 02:48:58;;;;;;;9.45;8.82;;;;;;;30.47;63.24;100753.81;5032804;28;66385;-35
2022/05/05 02:51:29;;;;;;;7.65;7.25;;;;;;;30.50;63.16;100750.69;5068345;28;69803;-35
2022/05/05 02:56:48;;;;;;;7.72;7.18;;;;;;;30.53;63.33;100749.41;5040405;28;69751;-35
2022/05/05 02:59:19;;;;;;;8.30;7.90;;;;;;;30.56;63.13;100743.56;5042140;28;66476;-35
2022/05/05 03:01:49;;;;;;;7.68;7.28;;;;;;;30.57;62.77;100742.53;5040895;28;70448;-36
2022/05/05 03:04:24;;;;;;;8.43;7.93;;;;;;;30.59;62.65;100743.09;5041203;28;65809;-37
2022/05/05 03:06:55;;;;;;;8.20;7.70;;;;;;;30.62;62.84;100742.66;5042130;28;69153;-35
2022/05/05 03:09:25;;;;;;;8.30;7.80;;;;;;;30.63;62.84;100734.31;5040461;28;66511;-36
2022/05/05 03:11:55;;;;;;;8.10;7.68;;;;;;;30.65;62.54;100737.66;5041734;28;70262;-36
2022/05/05 03:14:26;;;;;;;8.27;7.78;;;;;;;30.60;62.75;100729.38;5039821;28;65782;-35
2022/05/05 03:16:57;;;;;;;8.52;8.05;;;;;;;30.69;62.76;100738.84;5040427;28;69426;-35
2022/05/05 03:19:27;;;;;;;7.70;7.30;;;;;;;30.70;62.14;100735.09;5041316;28;66106;-36
2022/05/05 03:21:58;;;;;;;8.63;8.02;;;;;;;30.73;62.69;100734.66;5041623;28;70580;-36
2022/05/05 03:24:28;;;;;;;8.00;7.40;;;;;;;30.72;62.34;100732.16;5040807;28;66293;-36
2022/05/05 03:27:00;;;;;;;7.75;7.30;;;;;;;30.78;62.17;100733.16;5041561;28;70096;-35
2022/05/05 03:29:32;;;;;;;8.38;7.88;;;;;;;30.78;62.06;100730.44;5041803;28;65890;-34
2022/05/05 03:32:02;;;;;;;8.25;7.65;;;;;;;30.80;61.87;100739.22;5039540;28;69364;-36
2022/05/05 03:34:33;;;;;;;8.43;8.02;;;;;;;30.83;61.88;100738.75;5041886;28;65689;-35
2022/05/05 03:37:04;;;;;;;9.02;8.23;;;;;;;30.85;61.64;100736.66;5040991;28;70174;-35
2022/05/05 03:39:34;;;;;;;8.45;7.80;;;;;;;30.87;61.94;100734.53;5041389;28;66261;-36
2022/05/05 03:42:05;;;;;;;8.77;8.18;;;;;;;30.85;61.82;100721.25;5041405;28;69496;-36
2022/05/05 03:44:36;;;;;;;8.13;7.72;;;;;;;30.87;61.74;100724.56;5041121;28;67125;-35
2022/05/05 03:47:06;;;;;;;8.60;8.00;;;;;;;30.94;61.75;100729.91;5041511;28;70670;-36
2022/05/05 03:49:37;;;;;;;8.30;7.90;;;;;;;30.97;61.36;100721.31;5041280;28;66277;-34
2022/05/05 03:52:07;;;;;;;8.68;8.07;;;;;;;30.99;61.80;100718.41;5039833;28;70847;-36
2022/05/05 03:54:38;;;;;;;7.57;7.18;;;;;;;31.02;61.45;100721.47;5041214;28;65428;-35
2022/05/05 03:57:08;;;;;;;8.23;7.80;;;;;;;30.99;61.44;100711.09;5040972;28;69449;-36
2022/05/05 03:59:39;;;;;;;8.25;7.75;;;;;;;31.08;61.65;100712.44;5039240;28;65634;-36
2022/05/05 04:02:09;;;;;;;8.40;7.90;;;;;;;31.10;61.49;100702.22;5041062;28;69779;-35
2022/05/05 04:04:40;;;;;;;8.80;8.27;;;;;;;31.14;61.04;100702.56;5039355;28;67556;-34
2022/05/05 04:07:11;;;;;;;9.77;8.88;;;;;;;31.15;60.99;100699.66;5039812;28;69593;-35
2022/05/05 04:09:41;;;;;;;8.68;8.18;;;;;;;31.17;61.29;100696.69;5040358;28;66682;-34
2022/05/05 04:12:12;;;;;;;9.40;8.68;;;;;;;31.20;60.99;100698.97;5040077;28;69202;-35
2022/05/05 04:14:43;;;;;;;8.80;7.95;;;;;;;31.22;60.95;100688.72;5038014;28;66483;-34
2022/05/05 04:17:13;;;;;;;8.40;7.88;;;;;;;31.25;60.89;100703.72;5041053;28;69520;-34
2022/05/05 04:19:44;;;;;;;8.68;7.82;;;;;;;31.28;60.91;100697.81;5041235;28;65685;-35
2022/05/05 04:22:14;;;;;;;8.93;8.52;;;;;;;31.28;60.94;100687.00;5039960;28;70041;-36
2022/05/05 04:24:45;;;;;;;8.87;8.27;;;;;;;31.21;60.74;100673.53;5039653;28;66150;-36
2022/05/05 04:27:17;;;;;;;9.05;8.35;;;;;;;31.28;60.81;100676.97;5039780;28;70383;-34
2022/05/05 04:29:48;;;;;;;8.97;8.47;;;;;;;31.39;60.73;100697.09;5038894;28;65889;-37
2022/05/05 04:32:18;;;;;;;8.82;8.32;;;;;;;31.40;60.98;100696.06;5040009;28;69305;-36
2022/05/05 04:34:49;;;;;;;8.57;8.07;;;;;;;31.14;60.36;100654.63;5040480;28;65395;-35
2022/05/05 04:37:23;;;;;;;8.25;7.55;;;;;;;31.47;60.54;100690.53;5039290;28;70565;-35
2022/05/05 04:39:54;;;;;;;8.18;7.78;;;;;;;31.42;60.64;100682.25;5040758;28;65532;-36
2022/05/05 04:42:28;;;;;;;8.55;7.95;;;;;;;31.55;60.71;100699.16;5039387;28;70012;-36
2022/05/05 04:44:58;;;;;;;8.13;7.47;;;;;;;31.56;60.58;100681.84;5039752;28;65074;-34
2022/05/05 04:47:28;;;;;;;8.10;7.50;;;;;;;31.60;60.40;100691.19;5039928;28;70238;-35
2022/05/05 04:49:59;;;;;;;8.20;7.60;;;;;;;31.64;60.27;100685.28;5039233;28;65325;-36
2022/05/05 04:52:31;;;;;;;7.70;7.30;;;;;;;31.67;60.24;100684.84;5040462;28;69848;-35
2022/05/05 04:55:01;;;;;;;;;;;;;;;31.37;60.67;100685.66;5041566;28;66539;-35
2022/05/05 04:57:31;;;;;;;7.38;6.97;;;;;;;31.66;60.50;100675.06;5038912;28;70324;-35
2022/05/05 05:00:02;;;;;;;8.15;7.40;;;;;;;31.71;60.32;100673.31;5040280;28;65907;-35
2022/05/05 05:02:33;;;;;;;7.80;7.32;;;;;;;31.76;60.42;100678.00;5055941;28;70101;-35
2022/05/05 05:05:04;;;;;;;8.25;7.70;;;;;;;31.80;60.00;100668.38;5035012;28;66786;-35
2022/05/05 05:07:34;;;;;;;7.70;7.25;;;;;;;31.82;60.09;100660.84;5038650;28;70323;-37
2022/05/05 05:10:05;;;;;;;8.32;7.72;;;;;;;31.86;60.22;100662.00;5040255;28;65828;-35
2022/05/05 05:12:36;;;;;;;7.55;7.13;;;;;;;31.82;60.21;100644.56;5035331;28;69711;-36
2022/05/05 05:15:07;;;;;;;8.00;7.60;;;;;;;31.90;60.22;100638.81;5036380;28;66296;-35
2022/05/05 05:17:38;;;;;;;7.70;7.17;;;;;;;31.92;60.08;100633.16;5039776;28;69987;-35
2022/05/05 05:20:09;;;;;;;7.53;7.05;;;;;;;31.93;60.13;100626.66;5040879;28;66857;-34
2022/05/05 05:22:40;;;;;;;7.45;7.05;;;;;;;31.96;60.19;100623.50;5039277;28;69097;-36
2022/05/05 05:25:10;;;;;;;7.13;6.82;;;;;;;31.98;60.11;100627.66;5038968;28;65443;-35
2022/05/05 05:27:40;;;;;;;7.30;6.90;;;;;;;31.72;60.11;100581.94;5039912;28;70744;-35
2022/05/05 05:30:31;;;;;;;7.32;6.93;;;;;;;32.03;60.05;100630.47;5038682;28;65487;-35
2022/05/05 05:33:01;;;;;;;7.47;7.07;;;;;;;32.05;60.18;100622.91;5040109;28;69305;-36
2022/05/05 05:35:33;;;;;;;6.93;6.53;;;;;;;32.10;60.01;100607.84;5039736;28;65583;-34
2022/05/05 05:38:04;;;;;;;7.57;6.82;;;;;;;32.10;59.96;100603.22;5038134;28;69174;-36
2022/05/05 05:40:34;;;;;;;6.85;6.28;;;;;;;32.12;60.00;100592.94;5039201;28;65558;-36
2022/05/05 05:43:05;;;;;;;6.72;6.30;;;;;;;32.17;59.99;100594.97;5038841;28;69901;-35
2022/05/05 05:45:35;;;;;;;6.60;6.20;;;;;;;32.22;59.60;100595.09;5038043;28;66877;-35
2022/05/05 05:48:07;;;;;;;6.20;5.90;;;;;;;32.25;59.71;100600.03;5039734;28;69321;-36
2022/05/05 05:50:37;;;;;;;6.45;6.05;;;;;;;32.27;59.83;100587.06;5039766;28;66137;-35
2022/05/05 05:53:08;;;;;;;6.10;5.70;;;;;;;32.31;59.36;100587.41;5038033;28;70120;-36
2022/05/05 05:55:39;;;;;;;6.72;5.78;;;;;;;31.60;59.50;100474.28;5040022;28;66717;-35
2022/05/05 05:58:09;;;;;;;6.15;5.75;;;;;;;32.38;59.56;100575.38;5038847;28;69434;-35
2022/05/05 06:00:40;;;;;;;5.55;5.18;;;;;;;32.39;59.52;100568.88;5040971;28;66598;-35
2022/05/05 06:06:03;;;;;;;6.30;5.90;;;;;;;32.45;59.33;100565.19;5021222;28;66057;-34
2022/05/05 06:08:33;;;;;;;6.30;5.90;;;;;;;32.45;59.27;100562.47;5022860;28;70246;-35
2022/05/05 06:11:04;;;;;;;6.38;5.97;;;;;;;32.38;59.49;100545.50;5023203;28;66615;-36
2022/05/05 06:13:34;;;;;;;5.53;5.13;;;;;;;32.47;59.25;100554.97;5022299;28;70528;-35
2022/05/05 06:16:06;;;;;;;6.13;5.50;;;;;;;32.51;59.39;100554.47;5022927;28;66547;-35
2022/05/05 06:18:40;;;;;;;6.57;5.50;;;;;;;32.51;59.44;100549.03;5020544;28;69798;-35
2022/05/05 06:21:10;;;;;;;5.88;5.47;;;;;;;32.51;59.40;100544.44;5020667;28;66764;-36
2022/05/05 06:23:41;;;;;;;5.07;4.88;;;;;;;32.45;59.39;100526.38;5022054;28;68818;-35
2022/05/05 06:26:12;;;;;;;5.22;4.93;;;;;;;32.57;59.41;100537.22;5027582;28;66738;-36
2022/05/05 06:28:43;;;;;;;5.60;5.20;;;;;;;32.56;59.28;100536.41;5042271;28;69194;-36
2022/05/05 06:31:13;;;;;;;5.55;5.03;;;;;;;32.57;59.36;100527.22;5042507;28;66232;-36
2022/05/05 06:33:44;;;;;;;5.70;5.30;;;;;;;32.63;59.36;100520.00;5040244;28;70094;-36
2022/05/05 06:36:15;;;;;;;5.40;5.00;;;;;;;32.65;59.01;100509.69;5056889;28;66948;-35
2022/05/05 06:38:46;;;;;;;5.20;4.90;;;;;;;32.66;59.37;100508.66;5042546;28;70420;-34
2022/05/05 06:41:16;;;;;;;5.22;4.88;;;;;;;32.71;59.21;100506.03;5041010;28;66257;-35
2022/05/05 06:43:47;;;;;;;4.93;4.63;;;;;;;32.74;59.09;100497.41;5042128;28;70014;-34
2022/05/05 06:46:17;;;;;;;4.97;4.65;;;;;;;32.76;59.30;100497.97;5042495;28;65743;-35
2022/05/05 06:48:58;;;;;;;5.15;4.80;;;;;;;32.78;59.06;100484.97;5041643;28;70599;-35
2022/05/05 06:51:28;;;;;;;5.18;4.88;;;;;;;32.77;59.18;100472.47;5042540;28;66223;-35
2022/05/05 06:53:58;;;;;;;5.22;4.50;;;;;;;32.78;58.89;100460.53;5040890;28;69651;-35
2022/05/05 06:56:29;;;;;;;4.82;4.53;;;;;;;32.51;58.85;100397.81;5042221;28;65716;-34
2022/05/05 06:58:59;;;;;;;4.20;4.00;;;;;;;32.89;58.96;100458.81;5041333;28;69528;-35
2022/05/05 07:07:16;;;;;;;4.32;4.10;;;;;;;32.99;58.78;100452.72;5044250;28;66391;-35
2022/05/05 07:12:35;;;;;;;6.97;4.20;;;;;;;33.05;58.82;100430.88;5042358;28;66257;-35
2022/05/05 07:15:06;;;;;;;4.75;4.28;;;;;;;33.07;58.88;100434.19;5042149;28;69901;-35
2022/05/05 07:17:37;;;;;;;4.03;3.80;;;;;;;33.08;58.72;100446.69;5040771;28;66056;-35
2022/05/05 07:20:08;;;;;;;4.20;3.90;;;;;;;33.10;58.64;100427.44;5042501;28;69999;-36
2022/05/05 07:22:38;;;;;;;4.07;3.77;;;;;;;33.01;58.68;100410.69;5042387;28;66081;-35
2022/05/05 07:25:09;;;;;;;4.30;4.10;;;;;;;33.13;58.64;100424.22;5040971;28;69695;-34
2022/05/05 07:27:39;;;;;;;4.18;3.88;;;;;;;33.10;58.90;100416.56;5041523;28;67682;-35
2022/05/05 07:30:10;;;;;;;3.95;3.75;;;;;;;33.09;58.73;100409.47;5041785;28;70510;-36
2022/05/05 07:32:41;;;;;;;3.97;3.78;;;;;;;33.16;58.56;100418.28;5040902;28;67481;-35
2022/05/05 07:35:12;;;;;;;4.27;3.80;;;;;;;33.15;58.94;100419.34;5041660;28;69186;-34
2022/05/05 07:37:42;;;;;;;5.90;3.80;;;;;;;33.19;58.85;100423.22;5041656;28;65853;-35
2022/05/05 07:44:15;;;;;;;3.75;3.50;;;;;;;33.19;59.00;100431.38;5040678;28;66129;-34
2022/05/05 07:46:47;;;;;;;3.95;3.67;;;;;;;33.17;58.78;100411.78;5041532;28;70018;-34
2022/05/05 07:49:19;;;;;;;4.25;3.95;;;;;;;33.24;59.01;100411.59;5041989;28;65438;-34
2022/05/05 07:51:51;;;;;;;;;;;;;;;32.97;59.57;100411.41;5040622;28;70257;-35
2022/05/05 07:57:13;;;;;;;3.90;3.60;;;;;;;32.92;58.85;100339.59;5038836;28;70285;-35
2022/05/05 07:59:45;;;;;;;3.53;3.33;;;;;;;33.30;59.00;100389.69;5039730;28;66053;-34
2022/05/05 08:02:22;;;;;;;3.88;3.65;;;;;;;33.32;58.75;100392.16;5041819;28;70563;-35
2022/05/05 08:04:54;;;;;;;4.78;3.28;;;;;;;33.28;59.04;100383.69;5041268;28;66708;-34
2022/05/05 08:07:25;;;;;;;4.45;3.72;;;;;;;33.28;58.58;100380.97;5038931;28;70129;-36
2022/05/05 08:10:02;;;;;;;4.22;3.58;;;;;;;33.29;59.83;100377.19;5030583;28;65683;-33
2022/05/05 08:12:33;;;;;;;5.10;4.38;;;;;;;33.24;61.08;100390.69;5032542;28;70266;-35
2022/05/05 08:15:06;;;;;;;5.97;4.00;;;;;;;33.09;61.71;100371.41;5034116;28;65975;-35
2022/05/05 08:17:37;;;;;;;4.63;4.22;;;;;;;33.12;62.28;100392.66;5019826;28;70839;-33
2022/05/05 08:20:10;;;;;;;7.72;3.78;;;;;;;33.06;62.98;100396.38;5035789;28;66093;-36
2022/05/05 08:22:42;;;;;;;13.07;4.32;;;;;;;33.02;63.28;100397.97;5022325;28;70772;-34
2022/05/05 08:30:51;;;;;;;3.92;3.55;;;;;;;32.91;64.13;100394.22;5018931;28;65004;-35
2022/05/05 08:33:23;;;;;;;4.30;3.42;;;;;;;32.60;64.37;100354.84;5021875;28;70251;-34
2022/05/05 08:35:55;;;;;;;3.60;3.30;;;;;;;32.83;64.96;100381.84;5030523;28;66084;-34
2022/05/05 08:38:26;;;;;;;12.85;3.65;;;;;;;32.85;64.79;100365.31;5041018;28;69841;-35
2022/05/05 08:40:57;;;;;;;8.02;3.88;;;;;;;32.88;64.31;100353.94;5037800;28;66340;-34
2022/05/05 08:43:28;;;;;;;3.38;3.08;;;;;;;33.04;64.40;100371.34;5037128;28;69256;-38
2022/05/05 08:46:28;;;;;;;5.93;3.50;;;;;;;33.11;64.17;100372.81;5037721;28;66230;-35
2022/05/05 08:49:02;;;;;;;3.25;3.05;;;;;;;33.17;64.01;100376.44;5040405;28;70159;-34
2022/05/05 08:51:44;;;;;;;4.00;3.70;;;;;;;32.77;63.17;100309.50;5039948;28;66366;-34
2022/05/05 08:54:16;;;;;;;;;;;;;;;32.93;64.43;100362.16;5037565;28;70223;-35
2022/05/05 08:56:54;;;;;;;5.45;3.60;;;;;;;33.21;63.40;100353.16;5039303;28;66648;-35
2022/05/05 08:59:25;;;;;;;3.45;3.15;;;;;;;33.24;63.09;100346.38;5037469;28;69174;-34
2022/05/05 09:01:55;;;;;;;;;;;;;;;32.98;63.93;100342.41;5038912;28;66472;-35
2022/05/05 09:04:26;;;;;;;3.78;3.20;;;;;;;33.17;63.09;100335.69;5037222;28;69680;-33
2022/05/05 09:06:56;;;;;;;5.72;5.22;;;;;;;33.22;63.77;100349.34;5033906;28;67232;-33
2022/05/05 09:09:30;;;;;;;11.40;8.00;;;;;;;33.18;64.33;100342.75;5038167;28;69843;-37
2022/05/05 09:12:16;;;;;;;9.65;8.45;;;;;;;33.11;64.92;100347.56;5038912;28;66500;-37
2022/05/05 09:14:52;;;;;;;12.85;8.65;;;;;;;33.07;64.83;100358.09;5037902;28;70260;-38
2022/05/05 09:17:25;;;;;;;8.95;8.07;;;;;;;33.01;64.97;100355.53;5039750;28;66093;-36
2022/05/05 09:19:55;;;;;;;;;;;;;;;32.69;66.33;100350.66;5040749;28;70370;-36
2022/05/05 09:22:27;;;;;;;10.55;7.90;;;;;;;32.94;65.15;100353.78;5041303;28;66615;-36
2022/05/05 09:24:58;;;;;;;7.18;6.50;;;;;;;32.94;65.07;100348.34;5035193;28;69526;-37
2022/05/05 09:27:32;;;;;;;8.70;6.18;;;;;;;32.92;65.30;100355.91;5031957;28;64219;-35
2022/05/05 09:30:06;;;;;;;6.43;5.75;;;;;;;32.54;65.61;100312.34;5037471;28;69198;-39
2022/05/05 09:32:38;;;;;;;9.70;5.85;;;;;;;32.92;65.16;100377.66;5040162;28;66516;-38
2022/05/05 09:35:13;;;;;;;8.65;5.72;;;;;;;32.63;65.62;100351.63;5041905;28;69847;-39
2022/05/05 09:37:52;;;;;;;6.88;5.63;;;;;;;32.46;65.73;100324.47;5042915;28;66662;-38
2022/05/05 09:40:24;;;;;;;11.57;5.00;;;;;;;32.75;65.58;100360.53;5042597;28;69975;-37
2022/05/05 09:42:57;;;;;;;5.27;4.77;;;;;;;32.71;65.20;100359.38;5043846;28;65358;-37
2022/05/05 09:45:32;;;;;;;9.13;5.60;;;;;;;32.41;65.59;100308.84;5043935;28;70120;-37
2022/05/05 09:48:04;;;;;;;8.27;5.70;;;;;;;32.79;65.38;100383.41;5040677;28;65472;-38
2022/05/05 09:50:36;;;;;;;5.57;5.07;;;;;;;32.77;65.67;100390.97;5041946;28;70353;-37
2022/05/05 09:58:48;;;;;;;7.95;6.97;;;;;;;32.64;66.09;100408.41;5034297;28;65935;-38
2022/05/05 10:01:24;;;;;;;11.65;6.57;;;;;;;32.69;66.42;100429.41;5034731;28;70146;-39
2022/05/05 10:04:06;;;;;;;9.95;6.70;;;;;;;32.63;66.69;100427.66;5035901;28;65046;-38
2022/05/05 10:06:37;;;;;;;8.95;6.25;;;;;;;32.68;66.30;100441.31;5030309;28;69954;-38
2022/05/05 10:09:11;;;;;;;11.18;7.72;;;;;;;32.63;66.90;100433.09;5023312;28;65960;-38
2022/05/05 10:11:42;;;;;;;15.32;7.60;;;;;;;32.68;66.61;100441.31;5022765;28;70143;-40
2022/05/05 10:14:16;;;;;;;6.93;6.22;;;;;;;32.66;66.72;100440.75;5020357;28;66152;-38
2022/05/05 10:16:46;;;;;;;8.32;6.28;;;;;;;32.63;67.02;100436.63;5038557;28;69590;-36
2022/05/05 10:19:16;;;;;;;7.97;7.18;;;;;;;32.65;66.87;100430.94;5027687;28;65304;-35
2022/05/05 10:22:01;;;;;;;13.75;9.95;;;;;;;32.66;66.72;100443.47;5032483;28;70788;-39
2022/05/05 10:24:37;;;;;;;12.15;9.80;;;;;;;32.65;66.78;100452.66;5041926;28;65688;-36
2022/05/05 10:27:10;;;;;;;18.15;10.93;;;;;;;32.54;66.50;100450.81;5034757;28;71183;-35
2022/05/05 10:29:44;;;;;;;16.77;10.35;;;;;;;32.61;66.75;100474.06;5035188;28;66258;-36
2022/05/05 10:32:20;;;;;;;17.85;10.65;;;;;;;32.57;66.91;100472.06;5038917;28;69475;-36
2022/05/05 10:35:12;;;;;;;13.88;10.60;;;;;;;32.45;66.90;100474.78;5041427;28;66293;-37
2022/05/05 10:37:43;;;;;;;16.75;9.27;;;;;;;32.52;66.94;100496.41;5040480;28;70249;-36
2022/05/05 10:40:14;;;;;;;12.32;9.32;;;;;;;32.52;66.79;100513.53;5043214;28;66274;-37
2022/05/05 10:42:51;;;;;;;10.90;9.52;;;;;;;31.86;67.32;100409.75;5041364;28;69918;-38
2022/05/05 10:45:27;;;;;;;13.23;9.85;;;;;;;32.47;67.47;100516.13;5040727;28;66301;-38
2022/05/05 10:47:58;;;;;;;19.38;9.48;;;;;;;32.46;67.23;100518.03;5040334;28;70105;-38
2022/05/05 10:50:43;;;;;;;14.55;9.90;;;;;;;32.43;67.34;100521.19;5039205;28;66279;-37
2022/05/05 10:53:32;;;;;;;21.45;10.70;;;;;;;32.34;67.93;100517.19;5036789;28;70203;-35
2022/05/05 10:56:29;;;;;;;9.93;8.98;;;;;;;32.26;68.54;100514.84;5022695;28;66376;-35
2022/05/05 10:59:05;;;;;;;21.05;9.55;;;;;;;32.03;67.48;100440.53;5018483;28;69969;-35
2022/05/05 11:01:47;;;;;;;17.80;8.70;;;;;;;32.36;67.62;100514.25;5035000;28;65333;-35
2022/05/05 11:04:18;;;;;;;14.25;8.95;;;;;;;32.38;67.74;100523.78;5039665;28;70212;-36
2022/05/05 11:07:09;;;;;;;13.80;9.13;;;;;;;32.35;67.92;100524.28;5037772;28;65780;-35
2022/05/05 11:09:40;;;;;;;34.85;9.43;;;;;;;32.34;67.74;100525.31;5020809;28;70123;-36
2022/05/05 11:12:13;;;;;;;16.05;8.57;;;;;;;32.33;67.53;100520.97;5039378;28;66222;-36
2022/05/05 11:24:01;;;;;;;14.10;9.05;;;;;;;32.19;69.08;100525.00;5021791;28;66614;-33
2022/05/05 11:26:32;;;;;;;19.17;9.73;;;;;;;32.25;68.90;100516.72;5019107;28;70147;-34
2022/05/05 11:29:02;;;;;;;20.43;10.13;;;;;;;32.27;69.09;100527.34;5030380;28;65184;-35
2022/05/05 11:31:33;;;;;;;18.13;9.82;;;;;;;32.25;69.14;100524.03;5035602;28;70186;-35
2022/05/05 11:34:04;;;;;;;23.17;9.23;;;;;;;32.29;69.02;100530.66;5036936;28;66698;-36
2022/05/05 11:36:41;;;;;;;18.05;9.25;;;;;;;32.27;69.26;100524.63;5019485;28;70183;-35
2022/05/05 11:39:11;;;;;;;12.57;9.05;;;;;;;32.26;69.15;100536.53;5040872;28;66037;-34
2022/05/05 11:41:41;;;;;;;16.17;9.20;;;;;;;32.21;68.88;100533.75;5035254;28;69460;-35
2022/05/05 11:44:16;;;;;;;14.55;9.07;;;;;;;32.17;68.01;100532.56;5039482;28;66652;-34
2022/05/05 11:46:46;;;;;;;13.40;7.75;;;;;;;32.12;67.60;100530.53;5038580;28;69660;-36
2022/05/05 11:49:19;;;;;;;9.05;7.75;;;;;;;32.11;67.89;100555.22;5029084;28;66370;-36
2022/05/05 11:51:49;;;;;;;14.52;7.90;;;;;;;32.10;68.07;100561.72;5031385;28;69591;-35
2022/05/05 11:54:32;;;;;;;13.75;8.15;;;;;;;31.74;67.87;100512.03;5036191;28;66479;-35
2022/05/05 11:57:02;;;;;;;13.80;9.90;;;;;;;32.05;67.53;100563.22;5028155;28;70133;-35
2022/05/05 12:02:24;;;;;;;17.63;9.23;;;;;;;32.02;67.77;100579.97;5029942;28;69255;-35
2022/05/05 12:04:59;;;;;;;20.17;9.48;;;;;;;31.99;67.47;100569.59;5055812;28;65522;-35
2022/05/05 12:07:30;;;;;;;9.15;8.07;;;;;;;31.96;67.39;100564.66;5028896;28;69903;-35
2022/05/05 12:10:07;;;;;;;12.57;7.75;;;;;;;32.01;67.49;100583.78;5039422;28;66468;-38
2022/05/05 12:12:42;;;;;;;12.75;8.45;;;;;;;32.04;67.80;100580.59;5033904;28;69610;-41
2022/05/05 12:15:16;;;;;;;18.85;8.10;;;;;;;31.90;67.46;100565.56;5031236;28;65969;-40
2022/05/05 12:17:52;;;;;;;10.50;7.88;;;;;;;31.56;67.78;100516.47;5031838;28;70079;-39
2022/05/05 12:20:22;;;;;;;9.13;8.23;;;;;;;31.91;67.94;100578.09;5028064;28;66026;-41
2022/05/05 12:23:04;;;;;;;9.50;7.93;;;;;;;31.76;67.50;100555.97;5028586;28;70180;-40
2022/05/05 12:25:36;;;;;;;9.88;8.07;;;;;;;31.53;68.21;100521.53;5027999;28;65716;-42
2022/05/05 12:28:08;;;;;;;10.55;8.32;;;;;;;31.95;68.07;100584.69;5036529;28;70812;-40
2022/05/05 12:30:42;;;;;;;28.55;8.48;;;;;;;31.94;68.55;100583.03;5031330;28;66110;-40
2022/05/05 12:33:15;;;;;;;28.63;9.55;;;;;;;31.93;68.82;100592.25;5029409;28;69628;-39
2022/05/05 12:35:46;;;;;;;26.55;9.35;;;;;;;31.93;68.44;100592.25;5035820;28;65457;-41
2022/05/05 12:38:17;;;;;;;29.83;9.40;;;;;;;31.46;68.72;100543.34;5036501;28;70084;-40
2022/05/05 12:41:08;;;;;;;15.70;8.27;;;;;;;30.98;69.63;100478.34;5029503;28;66488;-40